Time;durP1;ratioP1;P1;durP2;ratioP2;P2;SDS_P1;SDS_P2;PMS_P1;PMS_P2;Temp;Humidity;BMP_temperature;BMP_pressure;BME280_temperature;BME280_humidity;BME280_pressure;Samples;Min_cycle;Max_cycle;Signal;HPM_P1;HPM_P2
2022/09/24 00:00:36;;;;;;;8.60;6.70;;;;;;;5.38;84.34;100662.39;87194;1305;26744;-68
2022/09/24 00:03:03;;;;;;;;;;;;;;;5.30;84.40;100662.85;87168;1301;24369;-69
2022/09/24 00:05:14;;;;;;;13.90;7.10;;;;;;;5.26;84.92;100663.23;87193;1306;23802;-71
2022/09/24 00:07:23;;;;;;;11.80;7.50;;;;;;;5.26;84.93;100663.58;87188;1304;24287;-71
2022/09/24 00:09:31;;;;;;;9.30;7.20;;;;;;;5.24;84.89;100663.09;87149;1290;22478;-67
2022/09/24 00:11:40;;;;;;;8.10;7.10;;;;;;;5.21;84.84;100659.84;87137;1304;25421;-69
2022/09/24 00:13:48;;;;;;;8.90;7.60;;;;;;;5.15;84.70;100659.90;87177;1289;22540;-70
2022/09/24 00:15:57;;;;;;;10.00;6.50;;;;;;;5.12;84.84;100663.58;87245;1304;22481;-69
2022/09/24 00:18:06;;;;;;;9.40;6.70;;;;;;;5.09;84.83;100664.12;87163;1288;22469;-68
2022/09/24 00:20:16;;;;;;;11.40;7.00;;;;;;;5.08;84.97;100664.14;87169;1282;22461;-68
2022/09/24 00:22:24;;;;;;;7.40;6.60;;;;;;;5.05;84.98;100661.39;87169;1289;24261;-68
2022/09/24 00:26:59;;;;;;;10.50;6.90;;;;;;;4.98;85.21;100657.50;87209;1298;24277;-71
2022/09/24 00:29:08;;;;;;;10.40;7.50;;;;;;;4.96;85.35;100658.04;87149;1293;22463;-70
2022/09/24 00:31:17;;;;;;;8.40;7.10;;;;;;;4.96;85.37;100655.61;87178;1298;22522;-70
2022/09/24 00:33:27;;;;;;;11.50;6.80;;;;;;;4.96;85.17;100654.23;87083;1282;22448;-71
2022/09/24 00:35:36;;;;;;;11.50;6.90;;;;;;;4.94;85.33;100651.15;87152;1297;22486;-68
2022/09/24 00:37:44;;;;;;;9.90;7.70;;;;;;;4.93;85.37;100650.11;87159;1281;22627;-69
2022/09/24 00:39:53;;;;;;;8.00;6.70;;;;;;;4.94;85.63;100653.23;87170;1288;22510;-70
2022/09/24 00:42:02;;;;;;;7.70;6.80;;;;;;;4.96;85.39;100653.37;87178;1287;22507;-70
2022/09/24 00:44:53;;;;;;;10.30;6.70;;;;;;;4.97;85.69;100648.86;87152;1287;22479;-71
2022/09/24 00:47:02;;;;;;;9.70;6.70;;;;;;;4.91;85.10;100651.86;87115;1287;24276;-69
2022/09/24 00:49:15;;;;;;;12.80;7.90;;;;;;;4.84;85.14;100650.73;87178;1304;22477;-68
2022/09/24 00:51:25;;;;;;;8.80;6.80;;;;;;;4.82;85.12;100649.02;87190;1294;24268;-67
2022/09/24 00:53:35;;;;;;;12.60;8.50;;;;;;;4.80;85.35;100645.23;87188;1287;22489;-69
2022/09/24 00:55:46;;;;;;;10.30;6.80;;;;;;;4.79;85.23;100644.73;87161;1286;22471;-69
2022/09/24 00:57:55;;;;;;;;;;;;;;;4.75;85.08;100646.66;87190;1287;22501;-69
2022/09/24 01:00:07;;;;;;;9.30;6.60;;;;;;;4.69;85.34;100645.34;87164;1297;22753;-70
2022/09/24 01:02:15;;;;;;;10.80;7.10;;;;;;;4.68;85.44;100645.17;87180;1303;22504;-70
2022/09/24 01:04:25;;;;;;;10.60;6.50;;;;;;;4.69;85.35;100644.65;87196;1284;22458;-71
2022/09/24 01:06:33;;;;;;;12.20;7.20;;;;;;;4.67;85.35;100640.86;87210;1304;24266;-68
2022/09/24 01:08:42;;;;;;;10.60;6.90;;;;;;;4.64;85.49;100636.40;87185;1293;22521;-69
2022/09/24 01:11:13;;;;;;;10.10;7.20;;;;;;;4.64;85.97;100638.13;87144;1275;22843;-68
2022/09/24 01:13:34;;;;;;;8.30;7.30;;;;;;;4.65;85.83;100637.08;87143;1284;22472;-68
2022/09/24 01:15:46;;;;;;;10.70;7.40;;;;;;;4.65;85.92;100637.09;87213;1287;22715;-68
2022/09/24 01:18:00;;;;;;;10.70;7.60;;;;;;;4.66;85.91;100633.27;87185;1297;22487;-67
2022/09/24 01:20:55;;;;;;;12.70;7.60;;;;;;;4.64;85.73;100633.46;87124;1298;22470;-69
2022/09/24 01:23:31;;;;;;;11.50;7.00;;;;;;;4.64;85.88;100631.91;87196;1278;22482;-70
2022/09/24 01:25:44;;;;;;;13.00;8.70;;;;;;;4.63;86.02;100630.36;87112;1306;22754;-68
2022/09/24 01:28:06;;;;;;;11.20;8.10;;;;;;;4.60;85.80;100629.52;87158;1304;22482;-67
2022/09/24 01:30:15;;;;;;;11.30;7.70;;;;;;;4.53;85.60;100629.24;87196;1304;22529;-69
2022/09/24 01:32:28;;;;;;;11.30;8.40;;;;;;;4.48;85.54;100624.45;87219;1304;22474;-69
2022/09/24 01:34:45;;;;;;;8.90;7.20;;;;;;;4.45;85.83;100625.01;87209;1293;22550;-70
2022/09/24 01:36:54;;;;;;;8.80;7.90;;;;;;;4.45;85.93;100623.80;87201;1286;26457;-70
2022/09/24 01:39:03;;;;;;;11.40;8.00;;;;;;;4.41;85.75;100622.62;87236;1304;22613;-69
2022/09/24 01:41:14;;;;;;;8.80;7.70;;;;;;;4.39;85.94;100621.25;87189;1287;22479;-70
2022/09/24 01:43:31;;;;;;;11.30;7.80;;;;;;;4.37;86.14;100617.98;87168;1284;22483;-69
2022/09/24 01:45:41;;;;;;;12.10;7.90;;;;;;;4.37;86.29;100616.09;87171;1275;22502;-66
2022/09/24 01:47:49;;;;;;;;;;;;;;;4.36;86.20;100616.80;87244;1288;22688;-68
2022/09/24 01:49:59;;;;;;;11.40;7.60;;;;;;;4.30;86.17;100619.42;87227;1284;22471;-69
2022/09/24 01:52:10;;;;;;;8.60;7.30;;;;;;;4.27;85.89;100619.11;87221;1284;22468;-68
2022/09/24 01:54:22;;;;;;;15.30;8.00;;;;;;;4.27;86.09;100616.35;87128;1291;22567;-68
2022/09/24 01:56:35;;;;;;;14.70;7.80;;;;;;;4.24;86.14;100613.44;87117;1300;22475;-70
2022/09/24 01:58:47;;;;;;;11.90;8.20;;;;;;;4.22;86.06;100616.39;87214;1282;22674;-67
2022/09/24 02:00:59;;;;;;;15.70;9.60;;;;;;;4.21;85.90;100614.50;87180;1304;25484;-70
2022/09/24 02:03:13;;;;;;;12.10;8.20;;;;;;;4.20;86.30;100614.33;87208;1280;22477;-71
2022/09/24 02:05:24;;;;;;;15.80;8.50;;;;;;;4.18;86.10;100616.24;87135;1301;22464;-69
2022/09/24 02:07:38;;;;;;;14.90;9.20;;;;;;;4.14;86.02;100618.00;87170;1304;22823;-67
2022/09/24 02:09:49;;;;;;;12.70;8.10;;;;;;;4.10;86.16;100617.16;87212;1284;22454;-68
2022/09/24 02:12:01;;;;;;;13.20;7.40;;;;;;;4.05;85.56;100614.11;87161;1284;22511;-67
2022/09/24 02:14:13;;;;;;;10.80;8.20;;;;;;;3.97;85.55;100616.23;87199;1304;25403;-69
2022/09/24 02:16:27;;;;;;;15.00;8.70;;;;;;;3.91;85.59;100615.40;87205;1300;22490;-70
2022/09/24 02:18:39;;;;;;;13.80;9.50;;;;;;;3.83;85.44;100614.60;87116;1278;22487;-70
2022/09/24 02:20:48;;;;;;;11.00;7.50;;;;;;;3.77;85.40;100614.48;87161;1287;22479;-69
2022/09/24 02:22:57;;;;;;;13.50;8.40;;;;;;;3.76;85.79;100614.83;87164;1294;22835;-66
2022/09/24 02:25:11;;;;;;;13.40;9.00;;;;;;;3.77;85.92;100617.23;87163;1282;22547;-69
2022/09/24 02:27:20;;;;;;;12.50;7.70;;;;;;;3.75;85.81;100618.10;87192;1298;22483;-68
2022/09/24 02:29:29;;;;;;;10.30;7.30;;;;;;;3.71;85.72;100617.27;87146;1279;22473;-70
2022/09/24 02:31:39;;;;;;;10.50;8.10;;;;;;;3.69;85.75;100617.28;87160;1294;22484;-67
2022/09/24 02:36:16;;;;;;;12.20;8.70;;;;;;;3.65;86.14;100617.81;87179;1304;22494;-69
2022/09/24 02:38:24;;;;;;;12.60;9.00;;;;;;;3.61;85.93;100623.70;87156;1304;23838;-69
2022/09/24 02:40:33;;;;;;;11.60;9.30;;;;;;;3.57;85.91;100619.23;87175;1286;22496;-68
2022/09/24 02:42:42;;;;;;;12.30;9.20;;;;;;;3.53;85.98;100621.16;87158;1284;22479;-68
2022/09/24 02:44:56;;;;;;;11.00;8.70;;;;;;;3.51;86.10;100620.48;87188;1285;22707;-68
2022/09/24 02:47:05;;;;;;;9.90;8.80;;;;;;;3.49;86.24;100622.23;87139;1294;22527;-68
2022/09/24 02:49:14;;;;;;;11.90;8.90;;;;;;;3.44;85.88;100619.66;87176;1294;21775;-69
2022/09/24 02:51:22;;;;;;;15.70;10.60;;;;;;;3.39;86.06;100616.40;87167;1284;22474;-69
2022/09/24 02:53:31;;;;;;;17.00;10.40;;;;;;;3.35;86.10;100611.94;87153;1282;25882;-68
2022/09/24 02:55:40;;;;;;;13.60;10.70;;;;;;;3.34;86.35;100607.63;87165;1287;22488;-69
2022/09/24 02:57:48;;;;;;;17.80;11.90;;;;;;;3.32;86.29;100607.47;87185;1304;22496;-69
2022/09/24 02:59:57;;;;;;;16.00;11.00;;;;;;;3.28;86.20;100606.97;87163;1286;25251;-68
2022/09/24 03:02:06;;;;;;;15.30;11.50;;;;;;;3.26;86.31;100608.70;87181;1299;22940;-69
2022/09/24 03:04:15;;;;;;;15.00;10.20;;;;;;;3.22;86.35;100608.20;87148;1278;24506;-67
2022/09/24 03:06:24;;;;;;;14.50;11.70;;;;;;;3.18;86.40;100610.11;87167;1274;22464;-69
2022/09/24 03:08:34;;;;;;;18.90;13.10;;;;;;;3.15;86.51;100606.69;87175;1282;22465;-67
2022/09/24 03:10:42;;;;;;;18.90;12.40;;;;;;;3.11;86.70;100606.35;87176;1304;22503;-68
2022/09/24 03:12:53;;;;;;;18.30;13.20;;;;;;;3.12;87.09;100606.52;87115;1280;22498;-68
2022/09/24 03:15:01;;;;;;;17.90;13.20;;;;;;;3.14;87.30;100605.80;87118;1285;22465;-70
2022/09/24 03:17:10;;;;;;;16.50;12.20;;;;;;;3.15;87.11;100604.43;87170;1282;24269;-70
2022/09/24 03:19:18;;;;;;;19.90;12.70;;;;;;;3.14;87.06;100603.23;87186;1287;22793;-70
2022/09/24 03:21:27;;;;;;;20.30;12.70;;;;;;;3.10;86.82;100602.04;87109;1274;22483;-68
2022/09/24 03:23:35;;;;;;;19.10;12.90;;;;;;;3.08;86.76;100603.42;87124;1282;24267;-67
2022/09/24 03:25:44;;;;;;;24.10;14.50;;;;;;;3.09;87.40;100598.59;87210;1305;22469;-67
2022/09/24 03:27:52;;;;;;;22.10;12.90;;;;;;;3.11;87.35;100598.78;87127;1274;22483;-67
2022/09/24 03:32:28;;;;;;;19.50;13.50;;;;;;;3.08;87.34;100592.05;87135;1284;22465;-67
2022/09/24 03:34:37;;;;;;;15.50;12.30;;;;;;;3.06;87.23;100593.09;87152;1296;23226;-68
2022/09/24 03:36:46;;;;;;;19.60;13.20;;;;;;;3.05;87.41;100590.70;87112;1278;24812;-69
2022/09/24 03:38:57;;;;;;;17.40;12.50;;;;;;;3.04;87.36;100592.59;87195;1290;24037;-69
2022/09/24 03:41:09;;;;;;;17.10;12.80;;;;;;;3.02;87.32;100592.95;85716;1304;1003583;-68
2022/09/24 03:43:18;;;;;;;14.60;12.30;;;;;;;2.99;87.12;100593.30;87155;1304;22512;-68
2022/09/24 03:45:26;;;;;;;23.30;12.40;;;;;;;2.95;87.12;100593.65;87200;1287;22470;-69
2022/09/24 03:47:36;;;;;;;19.50;12.80;;;;;;;2.93;87.11;100597.11;87174;1281;22733;-69
2022/09/24 03:49:45;;;;;;;18.00;12.80;;;;;;;2.88;87.04;100595.40;87156;1280;22425;-69
2022/09/24 03:51:53;;;;;;;20.80;13.20;;;;;;;2.86;87.20;100599.02;87177;1304;24268;-70
2022/09/24 03:54:02;;;;;;;18.70;12.30;;;;;;;2.83;87.20;100594.55;87191;1286;26456;-69
2022/09/24 03:56:11;;;;;;;22.50;13.10;;;;;;;2.80;87.14;100600.42;87026;1279;22481;-70
2022/09/24 03:58:20;;;;;;;17.00;11.80;;;;;;;2.75;87.18;100599.91;87171;1304;22478;-68
2022/09/24 04:00:29;;;;;;;17.30;12.70;;;;;;;2.73;87.15;100607.16;87167;1305;22516;-68
2022/09/24 04:02:40;;;;;;;22.70;14.20;;;;;;;2.72;87.45;100605.95;86407;1282;1002881;-68
2022/09/24 04:04:49;;;;;;;22.50;14.70;;;;;;;2.73;87.58;100605.61;87182;1304;22452;-67
2022/09/24 04:06:58;;;;;;;18.60;13.20;;;;;;;2.73;87.68;100606.46;87190;1274;22461;-68
2022/09/24 04:09:08;;;;;;;17.30;13.50;;;;;;;2.72;87.71;100606.82;87188;1276;22473;-67
2022/09/24 04:11:16;;;;;;;18.40;13.90;;;;;;;2.72;87.78;100606.64;87107;1282;26575;-66
2022/09/24 04:13:25;;;;;;;21.30;13.80;;;;;;;2.71;87.92;100607.49;87176;1282;22481;-68
2022/09/24 04:15:33;;;;;;;19.80;14.00;;;;;;;2.70;88.11;100608.37;87185;1287;22470;-66
2022/09/24 04:17:42;;;;;;;25.10;16.30;;;;;;;2.68;87.78;100608.36;87169;1287;25230;-68
2022/09/24 04:19:52;;;;;;;21.80;15.10;;;;;;;2.65;87.75;100609.07;87183;1275;22486;-69
2022/09/24 04:22:01;;;;;;;20.10;14.30;;;;;;;2.63;87.82;100606.66;87126;1305;22502;-69
2022/09/24 04:24:10;;;;;;;22.40;14.80;;;;;;;2.62;87.95;100603.05;87209;1282;22464;-69
2022/09/24 04:26:19;;;;;;;25.90;16.90;;;;;;;2.62;87.94;100603.73;87170;1287;24799;-67
2022/09/24 04:28:29;;;;;;;23.40;16.40;;;;;;;2.61;88.06;100601.67;87149;1292;22619;-68
2022/09/24 04:30:38;;;;;;;22.90;15.70;;;;;;;2.61;88.12;100601.67;87152;1284;22511;-68
2022/09/24 04:32:50;;;;;;;24.10;15.50;;;;;;;2.62;88.08;100599.77;87210;1277;22478;-66
2022/09/24 04:34:59;;;;;;;23.50;15.60;;;;;;;2.62;88.17;100600.11;87172;1282;22464;-66
2022/09/24 04:37:10;;;;;;;28.60;16.80;;;;;;;2.63;88.43;100601.50;87159;1284;22477;-68
2022/09/24 04:39:21;;;;;;;24.90;16.80;;;;;;;2.65;88.73;100601.30;87177;1304;23335;-70
2022/09/24 04:41:29;;;;;;;22.90;15.60;;;;;;;2.66;88.54;100602.70;87123;1284;22488;-69
2022/09/24 04:43:39;;;;;;;26.20;16.40;;;;;;;2.67;88.69;100602.35;87121;1306;22488;-68
2022/09/24 04:45:48;;;;;;;21.40;15.50;;;;;;;2.69;88.79;100605.09;87116;1281;22522;-67
2022/09/24 04:47:56;;;;;;;20.50;15.40;;;;;;;2.70;88.95;100606.46;87157;1289;22477;-66
2022/09/24 04:50:06;;;;;;;23.60;17.60;;;;;;;2.74;89.13;100603.02;87133;1277;25745;-70
2022/09/24 04:52:15;;;;;;;23.80;16.70;;;;;;;2.78;89.45;100606.11;87165;1281;24263;-68
2022/09/24 04:54:23;;;;;;;23.20;16.70;;;;;;;2.83;89.63;100603.34;87157;1282;22462;-69
2022/09/24 04:56:33;;;;;;;23.70;17.50;;;;;;;2.88;89.76;100604.37;87151;1279;22470;-67
2022/09/24 04:58:41;;;;;;;27.60;17.20;;;;;;;2.93;89.78;100606.92;87195;1287;22486;-68
2022/09/24 05:00:52;;;;;;;24.00;16.90;;;;;;;3.01;90.02;100606.56;87146;1287;22467;-68
2022/09/24 05:03:03;;;;;;;24.20;16.60;;;;;;;3.06;90.03;100607.40;87187;1304;22736;-69
2022/09/24 05:05:14;;;;;;;22.70;17.30;;;;;;;3.15;90.33;100606.34;87169;1282;22461;-68
2022/09/24 05:07:23;;;;;;;22.50;16.30;;;;;;;3.24;90.37;100605.09;87201;1287;22473;-68
2022/09/24 05:09:32;;;;;;;23.20;17.00;;;;;;;3.30;90.50;100601.95;87144;1282;22740;-68
2022/09/24 05:11:40;;;;;;;24.30;16.80;;;;;;;3.38;90.56;100599.85;87138;1292;22882;-69
2022/09/24 05:13:49;;;;;;;23.20;17.50;;;;;;;3.46;90.55;100595.67;87184;1298;22481;-68
2022/09/24 05:15:59;;;;;;;24.50;17.70;;;;;;;3.55;90.57;100598.05;87173;1302;22455;-70
2022/09/24 05:18:06;;;;;;;;;;;;;;;3.64;90.90;100597.82;87191;1287;26557;-69
2022/09/24 05:20:17;;;;;;;26.50;17.70;;;;;;;3.73;91.28;100601.20;87163;1280;22482;-69
2022/09/24 05:22:27;;;;;;;24.80;17.60;;;;;;;3.85;91.30;100599.92;87188;1280;22479;-68
2022/09/24 05:24:35;;;;;;;26.10;19.60;;;;;;;3.97;91.36;100599.50;87159;1283;23270;-69
2022/09/24 05:29:13;;;;;;;24.80;18.50;;;;;;;4.22;91.56;100606.38;87154;1286;22483;-66
2022/09/24 05:31:24;;;;;;;29.60;19.10;;;;;;;4.36;91.95;100603.83;87172;1305;26453;-69
2022/09/24 05:33:33;;;;;;;25.30;18.50;;;;;;;4.52;92.47;100602.30;87178;1299;22466;-68
2022/09/24 05:35:41;;;;;;;29.40;20.00;;;;;;;4.68;92.15;100601.28;87205;1287;22503;-68
2022/09/24 05:37:52;;;;;;;31.80;21.20;;;;;;;4.84;92.41;100597.14;87167;1287;22484;-68
2022/09/24 05:40:46;;;;;;;28.60;20.70;;;;;;;5.10;93.01;100596.85;87146;1304;22466;-68
2022/09/24 05:42:30;;;;;;;28.90;18.40;;;;;;;5.38;93.06;100593.71;87176;1304;25397;-68
2022/09/24 05:44:42;;;;;;;27.10;19.10;;;;;;;5.52;92.76;100589.90;87157;1282;22521;-69
2022/09/24 05:46:51;;;;;;;28.80;19.80;;;;;;;5.64;91.96;100589.38;87205;1299;22463;-69
2022/09/24 05:49:01;;;;;;;26.50;20.60;;;;;;;5.90;92.77;100593.16;87154;1282;22484;-69
2022/09/24 05:51:10;;;;;;;29.70;18.90;;;;;;;6.47;94.67;100588.44;87198;1278;25403;-70
2022/09/24 05:53:20;;;;;;;21.50;17.00;;;;;;;6.86;94.34;100583.54;87142;1303;24629;-68
2022/09/24 05:55:29;;;;;;;24.60;17.60;;;;;;;7.19;93.53;100583.40;87133;1296;22532;-69
2022/09/24 05:57:38;;;;;;;27.70;21.20;;;;;;;7.60;94.05;100585.31;87137;1284;22555;-70
2022/09/24 05:59:46;;;;;;;27.40;18.30;;;;;;;7.96;93.34;100587.95;87101;1300;22496;-69
2022/09/24 06:01:55;;;;;;;21.70;18.40;;;;;;;8.18;91.76;100590.55;87089;1306;22458;-70
2022/09/24 06:04:04;;;;;;;23.40;17.30;;;;;;;8.39;90.68;100592.13;87122;1277;25230;-68
2022/09/24 06:06:15;;;;;;;22.90;17.90;;;;;;;8.59;90.33;100591.27;87146;1299;22486;-69
2022/09/24 06:08:24;;;;;;;20.20;16.10;;;;;;;8.67;88.95;100596.46;87122;1287;22467;-69
2022/09/24 06:10:33;;;;;;;20.90;16.30;;;;;;;8.69;88.20;100600.38;87150;1306;22530;-70
2022/09/24 06:12:42;;;;;;;19.80;16.10;;;;;;;8.72;87.81;100596.85;87076;1286;22589;-70
2022/09/24 06:14:52;;;;;;;22.30;16.60;;;;;;;8.76;87.35;100596.20;87148;1287;22566;-66
2022/09/24 06:17:01;;;;;;;23.50;16.20;;;;;;;8.82;87.33;100593.80;87116;1278;23855;-69
2022/09/24 06:19:12;;;;;;;20.60;16.20;;;;;;;8.88;86.99;100594.52;87149;1285;22476;-69
2022/09/24 06:21:22;;;;;;;21.90;16.30;;;;;;;8.97;86.91;100597.04;87175;1287;26431;-69
2022/09/24 06:23:32;;;;;;;25.20;16.60;;;;;;;9.04;86.49;100597.34;87159;1282;22490;-68
2022/09/24 06:25:41;;;;;;;19.40;16.50;;;;;;;9.12;86.21;100598.70;87190;1278;22462;-69
2022/09/24 06:28:02;;;;;;;20.30;16.70;;;;;;;9.19;86.08;100591.70;87079;1276;24294;-69
2022/09/24 06:30:19;;;;;;;18.80;15.70;;;;;;;9.28;85.97;100595.80;87066;1306;23246;-71
2022/09/24 06:32:28;;;;;;;21.20;16.10;;;;;;;9.37;85.93;100595.19;87189;1276;26448;-70
2022/09/24 06:34:37;;;;;;;21.30;17.20;;;;;;;9.48;85.76;100595.05;87174;1304;22667;-70
2022/09/24 06:36:45;;;;;;;20.50;16.80;;;;;;;9.59;85.63;100596.11;87169;1276;22484;-68
2022/09/24 06:38:57;;;;;;;24.20;17.20;;;;;;;9.70;85.69;100596.96;87173;1291;22461;-68
2022/09/24 06:41:06;;;;;;;18.80;15.40;;;;;;;9.83;85.45;100593.60;87129;1278;25345;-69
2022/09/24 06:43:16;;;;;;;19.90;15.50;;;;;;;9.94;85.16;100595.52;87164;1284;22474;-69
2022/09/24 06:45:25;;;;;;;18.60;15.60;;;;;;;10.05;85.01;100598.48;87198;1304;25396;-68
2022/09/24 06:47:34;;;;;;;18.00;14.50;;;;;;;10.14;84.65;100597.31;87027;1306;24415;-67
2022/09/24 06:49:43;;;;;;;19.10;14.80;;;;;;;10.24;84.57;100595.27;87168;1287;22477;-70
2022/09/24 06:51:52;;;;;;;19.00;14.40;;;;;;;10.35;84.21;100598.07;87174;1287;26635;-70
2022/09/24 06:54:02;;;;;;;18.00;13.90;;;;;;;10.43;83.83;100601.27;87197;1287;22470;-68
2022/09/24 06:56:12;;;;;;;23.10;17.50;;;;;;;10.52;83.36;100604.13;87175;1294;22440;-69
2022/09/24 06:58:22;;;;;;;18.00;16.10;;;;;;;10.55;82.52;100606.11;87167;1304;22469;-68
2022/09/24 07:00:32;;;;;;;16.50;14.80;;;;;;;10.52;81.58;100606.56;87207;1290;22484;-68
2022/09/24 07:02:42;;;;;;;19.40;14.30;;;;;;;10.52;81.84;100605.51;87158;1282;22456;-68
2022/09/24 07:05:14;;;;;;;21.20;15.10;;;;;;;10.57;81.57;100605.67;87115;1284;22428;-68
2022/09/24 07:07:33;;;;;;;16.10;14.20;;;;;;;10.58;81.02;100605.80;87157;1290;22462;-67
2022/09/24 07:09:42;;;;;;;17.10;14.20;;;;;;;10.67;81.29;100606.92;87179;1283;24455;-69
2022/09/24 07:11:51;;;;;;;20.20;15.50;;;;;;;10.77;81.68;100608.66;87188;1304;23072;-69
2022/09/24 07:14:06;;;;;;;18.30;13.40;;;;;;;10.89;81.38;100607.20;87155;1304;25485;-69
2022/09/24 07:16:17;;;;;;;26.80;14.10;;;;;;;11.02;80.46;100613.02;87177;1300;22505;-69
2022/09/24 07:18:28;;;;;;;18.30;14.20;;;;;;;11.09;79.90;100615.55;87214;1292;22460;-69
2022/09/24 07:20:37;;;;;;;22.70;14.50;;;;;;;11.22;80.33;100613.50;87145;1279;22456;-69
2022/09/24 07:22:46;;;;;;;27.90;15.10;;;;;;;11.38;80.25;100616.23;87103;1306;22479;-68
2022/09/24 07:24:57;;;;;;;25.90;13.50;;;;;;;11.51;79.53;100619.94;87072;1294;22477;-69
2022/09/24 07:27:07;;;;;;;23.00;12.40;;;;;;;11.65;79.68;100616.59;87146;1294;24250;-70
2022/09/24 07:29:14;;;;;;;;;;;;;;;11.84;79.54;100619.02;87042;1307;22447;-71
2022/09/24 07:31:30;;;;;;;21.90;11.60;;;;;;;12.10;79.18;100619.08;86936;1296;276496;-73
2022/09/24 07:33:39;;;;;;;29.10;11.50;;;;;;;12.38;78.21;100617.56;87181;1304;25394;-72
2022/09/24 07:35:48;;;;;;;36.00;12.50;;;;;;;12.63;77.62;100615.27;87210;1284;22724;-74
2022/09/24 07:38:02;;;;;;;31.50;11.80;;;;;;;13.00;77.37;100616.48;87080;1306;22484;-72
2022/09/24 07:40:12;;;;;;;35.90;10.10;;;;;;;13.51;76.23;100615.43;87186;1284;22459;-71
2022/09/24 07:42:26;;;;;;;42.00;12.10;;;;;;;13.98;72.85;100619.70;87038;1306;22485;-71
2022/09/24 07:44:47;;;;;;;37.20;8.80;;;;;;;14.29;70.62;100620.29;87104;1306;24106;-72
2022/09/24 07:46:57;;;;;;;40.00;11.40;;;;;;;14.90;70.05;100613.34;87208;1280;22464;-71
2022/09/24 07:49:06;;;;;;;43.50;12.10;;;;;;;15.38;68.78;100609.59;87218;1306;22507;-72
2022/09/24 07:51:16;;;;;;;51.20;12.70;;;;;;;15.69;68.68;100613.03;87060;1306;22488;-72
2022/09/24 07:53:27;;;;;;;53.10;12.50;;;;;;;15.90;66.96;100615.52;87197;1304;24183;-70
2022/09/24 07:55:39;;;;;;;54.70;12.00;;;;;;;16.05;65.46;100613.27;87154;1304;22483;-69
2022/09/24 07:57:51;;;;;;;55.00;10.80;;;;;;;16.09;63.07;100615.71;87165;1280;22470;-69
2022/09/24 08:00:00;;;;;;;60.00;13.50;;;;;;;16.22;63.48;100613.38;87206;1304;22754;-69
2022/09/24 08:02:23;;;;;;;44.50;10.50;;;;;;;16.50;63.58;100609.27;87165;1284;26586;-69
2022/09/24 08:04:32;;;;;;;56.80;11.60;;;;;;;16.86;62.81;100607.70;87191;1282;22716;-69
2022/09/24 08:06:47;;;;;;;78.00;13.50;;;;;;;17.12;61.73;100603.48;87189;1284;22651;-69
2022/09/24 08:08:55;;;;;;;49.80;11.00;;;;;;;17.18;60.73;100606.80;87159;1282;22542;-69
2022/09/24 08:11:10;;;;;;;47.20;10.70;;;;;;;17.18;60.34;100605.02;87154;1274;23393;-67
2022/09/24 08:13:19;;;;;;;51.20;12.00;;;;;;;17.24;59.55;100607.46;87204;1297;22545;-69
2022/09/24 08:15:29;;;;;;;56.80;10.80;;;;;;;17.21;58.94;100606.23;87152;1303;25958;-67
2022/09/24 08:17:39;;;;;;;54.80;9.90;;;;;;;17.26;58.53;100609.79;87161;1287;22464;-69
2022/09/24 08:19:51;;;;;;;52.20;11.00;;;;;;;17.38;56.90;100605.04;87134;1304;25438;-74
2022/09/24 08:22:04;;;;;;;43.50;9.60;;;;;;;17.55;57.45;100601.67;87154;1281;25253;-76
2022/09/24 08:24:13;;;;;;;35.90;9.30;;;;;;;17.75;57.19;100603.71;87131;1306;22482;-69
2022/09/24 08:26:22;;;;;;;42.20;8.40;;;;;;;17.97;56.02;100601.11;87194;1303;26502;-77
2022/09/24 08:28:33;;;;;;;34.80;8.00;;;;;;;18.26;55.30;100597.39;87171;1291;22474;-76
2022/09/24 08:30:42;;;;;;;27.10;7.00;;;;;;;18.57;54.34;100597.31;87164;1290;22417;-78
2022/09/24 08:32:52;;;;;;;14.60;4.60;;;;;;;18.66;52.20;100596.67;87195;1304;24260;-79
2022/09/24 08:35:01;;;;;;;10.60;4.50;;;;;;;18.80;52.58;100593.27;87216;1285;22705;-76
2022/09/24 08:37:10;;;;;;;19.30;5.40;;;;;;;19.13;52.72;100591.19;87155;1304;22481;-76
2022/09/24 08:39:18;;;;;;;36.20;5.90;;;;;;;19.42;52.39;100592.65;87188;1277;22469;-76
2022/09/24 08:41:53;;;;;;;30.70;7.90;;;;;;;19.72;51.04;100590.34;87217;1304;26420;-78
2022/09/24 08:44:05;;;;;;;16.40;5.10;;;;;;;20.04;51.57;100594.70;87181;1296;22520;-76
2022/09/24 08:48:55;;;;;;;10.00;3.20;;;;;;;20.59;48.48;100596.41;87187;1282;22707;-76
2022/09/24 08:51:07;;;;;;;8.90;3.00;;;;;;;20.60;46.83;100595.80;87202;1305;22490;-75
2022/09/24 08:53:20;;;;;;;6.70;3.10;;;;;;;20.66;47.29;100595.09;87172;1288;22463;-78
2022/09/24 08:55:34;;;;;;;6.60;3.20;;;;;;;20.78;47.63;100599.06;87168;1288;22591;-74
2022/09/24 08:57:48;;;;;;;6.90;3.70;;;;;;;21.04;47.45;100590.10;87208;1304;24380;-79
2022/09/24 08:59:57;;;;;;;5.60;3.60;;;;;;;21.34;46.80;100592.58;87197;1284;23660;-76
2022/09/24 09:02:25;;;;;;;5.70;3.20;;;;;;;21.58;45.20;100588.49;87205;1285;22511;-76
2022/09/24 09:04:42;;;;;;;8.10;3.60;;;;;;;21.66;45.33;100590.21;87183;1306;22976;-76
2022/09/24 09:07:06;;;;;;;3.70;2.40;;;;;;;21.71;44.30;100586.58;87211;1304;22456;-73
2022/09/24 09:09:25;;;;;;;5.30;2.60;;;;;;;21.79;43.21;100585.34;87204;1274;22537;-75
2022/09/24 09:11:36;;;;;;;3.20;2.00;;;;;;;21.91;42.74;100585.15;87128;1291;22470;-74
2022/09/24 09:13:49;;;;;;;2.20;1.50;;;;;;;22.07;42.19;100582.70;87178;1298;26645;-74
2022/09/24 09:16:04;;;;;;;6.70;2.70;;;;;;;22.28;42.87;100578.17;87129;1305;22468;-72
2022/09/24 09:18:18;;;;;;;1.90;1.70;;;;;;;22.63;41.72;100578.79;87165;1282;22922;-74
2022/09/24 09:20:29;;;;;;;2.60;2.20;;;;;;;23.00;40.38;100583.80;87211;1287;22494;-73
2022/09/24 09:22:42;;;;;;;3.80;2.60;;;;;;;23.26;39.05;100580.65;87135;1284;26137;-75
2022/09/24 09:24:52;;;;;;;1.40;1.30;;;;;;;23.50;38.37;100580.82;87172;1304;25290;-73
2022/09/24 09:27:01;;;;;;;3.10;1.90;;;;;;;23.63;37.24;100583.01;87113;1274;22446;-73
2022/09/24 09:29:12;;;;;;;2.20;2.00;;;;;;;23.91;38.22;100581.92;87182;1284;22463;-74
2022/09/24 09:31:32;;;;;;;1.70;1.60;;;;;;;24.26;37.53;100576.98;87163;1294;22464;-74
2022/09/24 09:33:59;;;;;;;2.00;1.70;;;;;;;24.59;37.33;100577.29;87192;1306;22463;-73
2022/09/24 09:36:25;;;;;;;1.90;1.80;;;;;;;25.03;37.19;100571.59;87106;1282;22606;-75
2022/09/24 09:38:39;;;;;;;2.00;1.80;;;;;;;25.32;35.87;100574.51;87131;1299;22456;-75
2022/09/24 09:40:51;;;;;;;1.60;1.20;;;;;;;25.44;35.55;100571.58;87142;1301;22484;-73
2022/09/24 09:43:05;;;;;;;1.60;1.50;;;;;;;25.31;33.59;100570.81;87038;1303;22689;-75
2022/09/24 09:45:31;;;;;;;1.90;1.40;;;;;;;24.61;33.70;100570.95;87074;1306;25428;-73
2022/09/24 09:47:45;;;;;;;1.50;1.20;;;;;;;24.14;34.49;100573.86;87099;1290;22463;-75
2022/09/24 09:49:55;;;;;;;1.80;1.50;;;;;;;23.66;34.70;100574.80;87005;1309;22582;-74
2022/09/24 09:52:10;;;;;;;2.10;1.60;;;;;;;23.19;35.79;100574.13;87089;1287;22477;-73
2022/09/24 09:54:18;;;;;;;1.50;1.30;;;;;;;22.70;35.36;100573.70;87124;1282;23913;-74
2022/09/24 09:56:30;;;;;;;1.90;1.30;;;;;;;22.18;35.35;100574.75;87156;1284;22704;-74
2022/09/24 09:58:40;;;;;;;2.50;1.40;;;;;;;21.73;36.76;100577.56;87150;1300;22671;-74
2022/09/24 10:00:49;;;;;;;2.80;1.50;;;;;;;21.34;36.24;100579.06;87139;1306;22467;-73
2022/09/24 10:02:57;;;;;;;;;;;;;;;21.04;37.53;100579.30;87132;1301;22456;-72
2022/09/24 10:07:56;;;;;;;2.70;1.90;;;;;;;20.61;39.21;100581.95;87133;1299;22710;-72
2022/09/24 10:10:16;;;;;;;;;;;;;;;20.43;38.52;100577.27;87126;1304;25398;-73
2022/09/24 10:12:25;;;;;;;;;;;;;;;20.03;38.83;100577.05;87165;1306;22438;-72
2022/09/24 10:14:37;;;;;;;2.50;2.00;;;;;;;19.70;38.80;100571.55;87100;1288;22483;-74
2022/09/24 10:16:51;;;;;;;2.80;2.10;;;;;;;19.39;39.35;100572.69;87117;1306;22745;-73
2022/09/24 10:19:00;;;;;;;4.10;2.00;;;;;;;19.21;39.48;100573.80;87132;1305;26678;-74
2022/09/24 10:21:12;;;;;;;3.20;2.20;;;;;;;19.10;39.67;100575.08;87158;1306;23746;-73
2022/09/24 10:23:23;;;;;;;2.30;1.80;;;;;;;19.02;39.65;100569.86;87174;1305;22508;-72